createdAt,value
2022-12-01T00:00:18.029Z,0.48
2022-12-01T00:01:18.171Z,0.48
2022-12-01T00:02:18.416Z,0.4
2022-12-01T00:03:18.679Z,0.4
2022-12-01T00:04:18.636Z,0.32
2022-12-01T00:05:18.784Z,0.24
2022-12-01T00:06:18.934Z,0.48
2022-12-01T00:07:19.190Z,0.48
2022-12-01T00:08:19.210Z,0.64
2022-12-01T00:09:20.096Z,0.32
2022-12-01T00:10:19.489Z,0.48
2022-12-01T00:11:19.611Z,0.4
2022-12-01T00:12:19.752Z,0.32
2022-12-01T00:13:19.856Z,0.32
2022-12-01T00:14:19.955Z,0.32
2022-12-01T00:15:20.107Z,0.4
2022-12-01T00:16:20.258Z,0.4
2022-12-01T00:17:20.404Z,0.64
2022-12-01T00:18:20.559Z,0.4
2022-12-01T00:19:20.664Z,0.24
2022-12-01T00:20:20.820Z,0
2022-12-01T00:21:20.970Z,0.08
2022-12-01T00:22:21.131Z,0.24
2022-12-01T00:23:21.269Z,0
2022-12-01T00:24:21.414Z,0.08
2022-12-01T00:25:21.567Z,-0.08
2022-12-01T00:26:21.721Z,-0.08
2022-12-01T00:27:21.818Z,0
2022-12-01T00:28:21.989Z,0
2022-12-01T00:29:22.194Z,-0.08
2022-12-01T00:30:22.327Z,-0.08
2022-12-01T00:31:22.511Z,-0.08
2022-12-01T00:32:22.576Z,-0.24
2022-12-01T00:33:22.731Z,-0.24
2022-12-01T00:34:22.884Z,-0.08
2022-12-01T00:35:23.033Z,-0.08
2022-12-01T00:36:23.197Z,-0.08
2022-12-01T00:37:23.330Z,-0.08
2022-12-01T00:38:23.486Z,-0.4
2022-12-01T00:39:23.639Z,-0.48
2022-12-01T00:40:23.794Z,-0.64
2022-12-01T00:41:23.959Z,-0.4
2022-12-01T00:42:24.056Z,-0.48
2022-12-01T00:43:24.195Z,-0.48
2022-12-01T00:44:24.307Z,-0.48
2022-12-01T00:45:24.447Z,-0.4
2022-12-01T00:46:24.585Z,-0.4
2022-12-01T00:47:24.790Z,-0.72
2022-12-01T00:48:24.964Z,-0.8
2022-12-01T00:49:25.208Z,-0.8
2022-12-01T00:50:25.364Z,-0.72
2022-12-01T00:51:25.516Z,-0.64
2022-12-01T00:52:25.652Z,-0.72
2022-12-01T00:53:25.810Z,-0.8
2022-12-01T00:54:25.911Z,-0.8
2022-12-01T00:55:26.059Z,-0.72
2022-12-01T00:56:26.213Z,-0.72
2022-12-01T00:57:26.367Z,-0.72
2022-12-01T00:58:26.521Z,-0.48
2022-12-01T00:59:26.666Z,-0.8
2022-12-01T01:00:26.826Z,-0.8
2022-12-01T01:01:27.018Z,-0.88
2022-12-01T01:02:27.163Z,-1.04
2022-12-01T01:03:27.182Z,-1.04
2022-12-01T01:04:27.326Z,-1.04
2022-12-01T01:05:27.424Z,-1.12
2022-12-01T01:06:27.578Z,-0.88
2022-12-01T01:07:27.808Z,-0.88
2022-12-01T01:08:27.882Z,-1.12
2022-12-01T01:09:27.985Z,-1.04
2022-12-01T01:10:28.136Z,-0.8
2022-12-01T01:11:28.238Z,-0.64
2022-12-01T01:12:28.382Z,-0.72
2022-12-01T01:13:28.539Z,-0.48
2022-12-01T01:14:28.687Z,-0.64
2022-12-01T01:15:28.800Z,-0.48
2022-12-01T01:16:28.964Z,-0.72
2022-12-01T01:17:29.079Z,-0.32
2022-12-01T01:18:29.247Z,-0.48
2022-12-01T01:19:29.401Z,-0.8
2022-12-01T01:20:29.497Z,-0.32
2022-12-01T01:21:29.644Z,-0.32
2022-12-01T01:22:29.792Z,-0.48
2022-12-01T01:23:29.948Z,-0.48
2022-12-01T01:24:30.056Z,-0.32
2022-12-01T01:25:30.218Z,-0.32
2022-12-01T01:26:30.368Z,-0.08
2022-12-01T01:27:30.508Z,0
2022-12-01T01:28:30.614Z,0
2022-12-01T01:29:30.707Z,-0.08
2022-12-01T01:30:30.924Z,-0.08
2022-12-01T01:31:31.000Z,-0.24
2022-12-01T01:32:31.172Z,-0.24
2022-12-01T01:33:31.321Z,0
2022-12-01T01:34:31.465Z,0
2022-12-01T01:35:31.632Z,-0.08
2022-12-01T01:36:31.784Z,0
2022-12-01T01:37:31.907Z,0.08
2022-12-01T01:38:32.012Z,0.08
2022-12-01T01:39:32.172Z,0.24
2022-12-01T01:40:32.327Z,0.24
2022-12-01T01:41:32.465Z,0
2022-12-01T01:42:32.649Z,-0.08
2022-12-01T01:43:32.733Z,0
2022-12-01T01:44:32.879Z,-0.08
2022-12-01T01:45:33.035Z,-0.08
2022-12-01T01:46:33.230Z,0.08
2022-12-01T01:47:33.269Z,0
2022-12-01T01:48:33.434Z,0.32
2022-12-01T01:49:33.601Z,0.24
2022-12-01T01:50:33.741Z,0.08
2022-12-01T01:51:33.894Z,0.08
2022-12-01T01:52:34.045Z,0.08
2022-12-01T01:53:34.211Z,0.24
2022-12-01T01:54:34.342Z,0.24
2022-12-01T01:55:34.500Z,0.24
2022-12-01T01:56:34.647Z,0.24
2022-12-01T01:57:34.766Z,0.08
2022-12-01T01:58:34.850Z,0.24
2022-12-01T01:59:34.964Z,0.08
2022-12-01T02:00:35.100Z,0.08
2022-12-01T02:01:35.306Z,0.08
2022-12-01T02:02:35.451Z,0.08
2022-12-01T02:03:35.561Z,0.08
2022-12-01T02:04:35.710Z,0
2022-12-01T02:05:35.856Z,0
2022-12-01T02:06:36.395Z,0
2022-12-01T02:07:36.181Z,0.08
2022-12-01T02:08:36.223Z,0
2022-12-01T02:09:36.333Z,0
2022-12-01T02:10:36.509Z,0.08
2022-12-01T02:11:36.620Z,0.08
2022-12-01T02:12:36.772Z,0
2022-12-01T02:13:36.876Z,0
2022-12-01T02:14:37.026Z,0.08
2022-12-01T02:15:37.158Z,0.08
2022-12-01T02:16:37.296Z,0.08
2022-12-01T02:17:41.487Z,0
2022-12-01T02:18:37.537Z,0.32
2022-12-01T02:19:37.635Z,0.08
2022-12-01T02:20:37.780Z,0.08
2022-12-01T02:21:37.885Z,0
2022-12-01T02:22:38.034Z,0.08
2022-12-01T02:23:38.218Z,0
2022-12-01T02:24:38.375Z,0.08
2022-12-01T02:25:38.493Z,0
2022-12-01T02:26:38.651Z,0
2022-12-01T02:27:38.747Z,0.24
2022-12-01T02:28:38.896Z,0
2022-12-01T02:29:39.051Z,-0.24
2022-12-01T02:30:39.239Z,-0.24
2022-12-01T02:31:39.344Z,-0.24
2022-12-01T02:32:39.467Z,-0.32
2022-12-01T02:33:39.600Z,-0.32
2022-12-01T02:34:39.748Z,-0.32
2022-12-01T02:35:39.860Z,-0.24
2022-12-01T02:36:39.962Z,-0.24
2022-12-01T02:37:40.108Z,-0.32
2022-12-01T02:38:40.263Z,-0.32
2022-12-01T02:39:40.408Z,-0.48
2022-12-01T02:40:40.559Z,-0.4
2022-12-01T02:41:40.672Z,-0.32
2022-12-01T02:42:40.813Z,-0.48
2022-12-01T02:43:40.972Z,-0.4
2022-12-01T02:44:41.126Z,-0.48
2022-12-01T02:45:41.262Z,-0.64
2022-12-01T02:46:41.379Z,-0.48
2022-12-01T02:47:41.530Z,-0.48
2022-12-01T02:48:41.676Z,-0.64
2022-12-01T02:49:41.824Z,-0.48
2022-12-01T02:50:41.985Z,-0.48
2022-12-01T02:51:42.138Z,-0.4
2022-12-01T02:52:42.232Z,-0.4
2022-12-01T02:53:42.382Z,-0.48
2022-12-01T02:54:42.529Z,-0.64
2022-12-01T02:55:42.682Z,-0.48
2022-12-01T02:56:42.842Z,-0.48
2022-12-01T02:57:42.986Z,-0.48
2022-12-01T02:58:43.140Z,-0.4
2022-12-01T02:59:43.252Z,-0.48
2022-12-01T03:00:43.384Z,-0.48
2022-12-01T03:01:43.570Z,-0.4
2022-12-01T03:02:43.831Z,-0.48
2022-12-01T03:03:43.852Z,-0.48
2022-12-01T03:04:43.996Z,-0.48
2022-12-01T03:05:44.151Z,-0.24
2022-12-01T03:06:44.302Z,-0.32
2022-12-01T03:07:44.543Z,-0.4
2022-12-01T03:08:44.625Z,-0.4
2022-12-01T03:09:44.761Z,-0.4
2022-12-01T03:10:44.911Z,-0.24
2022-12-01T03:11:45.009Z,-0.4
2022-12-01T03:12:45.158Z,-0.4
2022-12-01T03:13:45.311Z,-0.48
2022-12-01T03:14:45.457Z,-0.48
2022-12-01T03:15:45.600Z,-0.48
2022-12-01T03:16:45.683Z,-0.48
2022-12-01T03:17:45.861Z,-0.48
2022-12-01T03:18:45.983Z,-0.48
2022-12-01T03:19:46.569Z,-0.24
2022-12-01T03:20:46.272Z,-0.32
2022-12-01T03:21:46.426Z,-0.4
2022-12-01T03:22:46.576Z,-0.4
2022-12-01T03:23:46.728Z,-0.48
2022-12-01T03:24:46.892Z,-0.32
2022-12-01T03:25:47.039Z,-0.32
2022-12-01T03:26:47.134Z,-0.32
2022-12-01T03:28:13.778Z,-0.4
2022-12-01T03:28:47.429Z,-0.32
2022-12-01T03:29:47.990Z,-0.4
2022-12-01T03:30:47.869Z,-0.32
2022-12-01T03:31:47.880Z,-0.08
2022-12-01T03:32:47.925Z,-0.32
2022-12-01T03:33:48.104Z,-0.32
2022-12-01T03:34:48.259Z,-0.32
2022-12-01T03:35:48.359Z,-0.32
2022-12-01T03:36:48.517Z,-0.32
2022-12-01T03:37:48.641Z,-0.32
2022-12-01T03:38:48.798Z,-0.24
2022-12-01T03:39:49.223Z,-0.24
2022-12-01T03:40:49.105Z,-0.32
2022-12-01T03:41:49.259Z,-0.32
2022-12-01T03:42:49.407Z,-0.24
2022-12-01T03:43:49.555Z,-0.08
2022-12-01T03:44:49.706Z,-0.24
2022-12-01T03:45:49.831Z,-0.32
2022-12-01T03:46:49.956Z,-0.24
2022-12-01T03:47:50.105Z,0
2022-12-01T03:48:50.228Z,-0.32
2022-12-01T03:49:50.590Z,-0.32
2022-12-01T03:50:50.524Z,-0.24
2022-12-01T03:51:50.667Z,-0.08
2022-12-01T03:52:50.820Z,-0.24
2022-12-01T03:53:50.985Z,-0.32
2022-12-01T03:54:51.123Z,-0.32
2022-12-01T03:55:51.226Z,-0.24
2022-12-01T03:56:51.377Z,-0.32
2022-12-01T03:57:51.501Z,-0.32
2022-12-01T03:58:51.611Z,-0.32
2022-12-01T03:59:51.852Z,-0.24
2022-12-01T04:00:51.913Z,-0.08
2022-12-01T04:01:52.086Z,-0.08
2022-12-01T04:02:52.261Z,-0.08
2022-12-01T04:03:52.384Z,0
2022-12-01T04:04:52.535Z,0
2022-12-01T04:05:52.688Z,0
2022-12-01T04:06:52.838Z,0
2022-12-01T04:07:53.162Z,-0.08
2022-12-01T04:08:53.147Z,-0.08
2022-12-01T04:09:53.328Z,-0.24
2022-12-01T04:10:53.441Z,-0.08
2022-12-01T04:11:53.597Z,-0.24
2022-12-01T04:12:53.747Z,-0.08
2022-12-01T04:13:53.897Z,-0.08
2022-12-01T04:14:54.053Z,-0.24
2022-12-01T04:15:54.252Z,-0.32
2022-12-01T04:16:54.301Z,-0.24
2022-12-01T04:17:54.460Z,-0.24
2022-12-01T04:18:54.605Z,-0.32
2022-12-01T04:19:54.755Z,-0.24
2022-12-01T04:20:54.908Z,-0.24
2022-12-01T04:21:55.066Z,-0.32
2022-12-01T04:22:55.166Z,-0.24
2022-12-01T04:23:55.317Z,-0.08
2022-12-01T04:24:55.469Z,-0.08
2022-12-01T04:25:55.575Z,-0.08
2022-12-01T04:26:55.722Z,-0.24
2022-12-01T04:27:55.857Z,-0.08
2022-12-01T04:28:56.025Z,-0.32
2022-12-01T04:29:56.168Z,-0.32
2022-12-01T04:30:56.318Z,-0.32
2022-12-01T04:31:56.377Z,-0.24
2022-12-01T04:32:56.915Z,-0.08
2022-12-01T04:33:56.636Z,-0.32
2022-12-01T04:34:56.781Z,-0.32
2022-12-01T04:35:56.932Z,-0.32
2022-12-01T04:36:57.418Z,-0.32
2022-12-01T04:37:57.565Z,-0.32
2022-12-01T04:38:57.750Z,-0.32
2022-12-01T04:39:57.909Z,-0.32
2022-12-01T04:40:58.083Z,-0.24
2022-12-01T04:41:58.224Z,0.08
2022-12-01T04:42:58.373Z,-0.24
2022-12-01T04:43:58.137Z,-0.08
2022-12-01T04:44:58.882Z,-0.24
2022-12-01T04:45:58.438Z,0
2022-12-01T04:46:58.962Z,-0.08
2022-12-01T04:47:59.084Z,-0.24
2022-12-01T04:48:59.234Z,-0.24
2022-12-01T04:49:59.341Z,-0.24
2022-12-01T04:50:59.490Z,-0.08
2022-12-01T04:51:59.635Z,0.08
2022-12-01T04:52:59.790Z,-0.08
2022-12-01T04:53:59.992Z,-0.08
2022-12-01T04:55:00.102Z,0.32
2022-12-01T04:55:59.901Z,0.08
2022-12-01T04:56:59.999Z,0.08
2022-12-01T04:58:00.160Z,0
2022-12-01T04:59:00.271Z,0
2022-12-01T05:00:00.427Z,0
2022-12-01T05:01:00.621Z,-0.08
2022-12-01T05:02:00.742Z,0.08
2022-12-01T05:03:00.873Z,-0.08
2022-12-01T05:04:01.022Z,-0.08
2022-12-01T05:05:01.136Z,-0.08
2022-12-01T05:06:01.277Z,0
2022-12-01T05:07:01.426Z,-0.24
2022-12-01T05:08:01.618Z,-0.24
2022-12-01T05:09:01.728Z,-0.24
2022-12-01T05:10:01.884Z,-0.08
2022-12-01T05:11:02.036Z,-0.24
2022-12-01T05:12:02.180Z,-0.08
2022-12-01T05:13:02.342Z,-0.24
2022-12-01T05:14:02.491Z,-0.08
2022-12-01T05:15:02.641Z,-0.08
2022-12-01T05:16:02.746Z,-0.08
2022-12-01T05:17:02.909Z,-0.08
2022-12-01T05:18:03.012Z,-0.24
2022-12-01T05:19:03.148Z,-0.08
2022-12-01T05:20:03.299Z,-0.08
2022-12-01T05:21:03.418Z,-0.08
2022-12-01T05:22:03.661Z,-0.08
2022-12-01T05:23:05.606Z,0
2022-12-01T05:24:03.940Z,0
2022-12-01T05:25:04.076Z,0
2022-12-01T05:26:04.189Z,-0.08
2022-12-01T05:27:04.354Z,-0.08
2022-12-01T05:28:04.509Z,-0.24
2022-12-01T05:29:04.660Z,-0.08
2022-12-01T05:30:04.821Z,-0.24
2022-12-01T05:31:05.022Z,-0.08
2022-12-01T05:32:05.141Z,-0.08
2022-12-01T05:33:05.225Z,-0.24
2022-12-01T05:34:05.386Z,0
2022-12-01T05:35:05.524Z,-0.08
2022-12-01T05:36:05.626Z,0
2022-12-01T05:37:05.768Z,0.08
2022-12-01T05:38:07.932Z,0.08
2022-12-01T05:39:06.033Z,-0.08
2022-12-01T05:40:06.137Z,-0.24
2022-12-01T05:41:06.235Z,0
2022-12-01T05:42:06.380Z,0
2022-12-01T05:43:06.497Z,-0.08
2022-12-01T05:44:06.636Z,0
2022-12-01T05:45:06.767Z,0
2022-12-01T05:46:06.965Z,-0.08
2022-12-01T05:47:07.072Z,0
2022-12-01T05:48:07.178Z,-0.24
2022-12-01T05:49:07.331Z,-0.24
2022-12-01T05:50:07.464Z,-0.24
2022-12-01T05:51:07.604Z,-0.08
2022-12-01T05:52:07.696Z,-0.24
2022-12-01T05:53:07.872Z,-0.24
2022-12-01T05:54:07.996Z,-0.08
2022-12-01T05:55:08.199Z,-0.08
2022-12-01T05:56:08.311Z,0
2022-12-01T05:57:08.404Z,-0.08
2022-12-01T05:58:08.556Z,-0.24
2022-12-01T05:59:08.704Z,-0.24
2022-12-01T06:00:08.828Z,-0.24
2022-12-01T06:01:08.955Z,-0.08
2022-12-01T06:02:09.135Z,-0.24
2022-12-01T06:03:09.208Z,-0.32
2022-12-01T06:04:09.348Z,-0.24
2022-12-01T06:05:09.454Z,-0.24
2022-12-01T06:06:09.584Z,0
2022-12-01T06:07:09.712Z,-0.08
2022-12-01T06:08:09.883Z,-0.08
2022-12-01T06:09:10.026Z,0
2022-12-01T06:10:10.138Z,0
2022-12-01T06:11:10.271Z,-0.08
2022-12-01T06:12:10.373Z,-0.08
2022-12-01T06:13:10.525Z,-0.08
2022-12-01T06:14:10.684Z,0.08
2022-12-01T06:15:10.833Z,0
2022-12-01T06:16:10.976Z,-0.08
2022-12-01T06:17:11.127Z,-0.08
2022-12-01T06:18:11.279Z,0
2022-12-01T06:19:11.433Z,-0.08
2022-12-01T06:20:11.585Z,0
2022-12-01T06:21:11.746Z,0
2022-12-01T06:22:11.889Z,-0.08
2022-12-01T06:23:12.033Z,-0.08
2022-12-01T06:24:12.193Z,0.08
2022-12-01T06:25:12.348Z,0
2022-12-01T06:26:12.498Z,-0.08
2022-12-01T06:27:12.653Z,0
2022-12-01T06:28:12.796Z,-0.08
2022-12-01T06:29:12.952Z,0
2022-12-01T06:30:13.051Z,0
2022-12-01T06:31:13.184Z,-0.08
2022-12-01T06:32:13.311Z,-0.08
2022-12-01T06:33:13.453Z,0
2022-12-01T06:34:13.611Z,0
2022-12-01T06:35:13.757Z,-0.08
2022-12-01T06:36:13.910Z,-0.08
2022-12-01T06:37:14.065Z,-0.08
2022-12-01T06:38:14.207Z,-0.08
2022-12-01T06:39:14.374Z,-0.08
2022-12-01T06:40:14.531Z,-0.08
2022-12-01T06:41:14.667Z,-0.24
2022-12-01T06:42:14.821Z,-0.24
2022-12-01T06:43:14.975Z,-0.32
2022-12-01T06:44:15.118Z,-0.32
2022-12-01T06:45:15.268Z,-0.08
2022-12-01T06:46:15.440Z,0
2022-12-01T06:47:15.518Z,0
2022-12-01T06:48:15.679Z,0.24
2022-12-01T06:49:15.774Z,0.32
2022-12-01T06:50:15.927Z,0.32
2022-12-01T06:51:16.091Z,0
2022-12-01T06:52:16.240Z,0
2022-12-01T06:53:16.386Z,0
2022-12-01T06:54:16.533Z,0
2022-12-01T06:55:16.641Z,-0.08
2022-12-01T06:56:16.795Z,0
2022-12-01T06:57:16.952Z,0
2022-12-01T06:58:17.096Z,-0.08
2022-12-01T06:59:17.195Z,0
2022-12-01T07:00:17.338Z,0.24
2022-12-01T07:01:17.524Z,0
2022-12-01T07:02:17.602Z,0.24
2022-12-01T07:03:17.752Z,0.24
2022-12-01T07:04:17.908Z,0.08
2022-12-01T07:05:18.005Z,0.32
2022-12-01T07:06:18.157Z,0.24
2022-12-01T07:07:18.307Z,0.08
2022-12-01T07:08:18.486Z,0
2022-12-01T07:09:18.558Z,0
2022-12-01T07:10:18.708Z,0.08
2022-12-01T07:11:18.861Z,0
2022-12-01T07:12:18.979Z,0.08
2022-12-01T07:13:19.094Z,0.08
2022-12-01T07:14:19.262Z,0
2022-12-01T07:15:19.420Z,-0.08
2022-12-01T07:16:19.627Z,0
2022-12-01T07:17:19.671Z,0.32
2022-12-01T07:18:19.822Z,0.08
2022-12-01T07:19:19.981Z,0.08
2022-12-01T07:20:20.128Z,0
2022-12-01T07:21:20.279Z,0.24
2022-12-01T07:22:20.433Z,0
2022-12-01T07:23:20.581Z,-0.08
2022-12-01T07:24:20.748Z,0
2022-12-01T07:25:20.884Z,0.08
2022-12-01T07:26:21.037Z,0
2022-12-01T07:27:21.180Z,0
2022-12-01T07:28:21.335Z,-0.08
2022-12-01T07:29:21.477Z,0
2022-12-01T07:30:25.462Z,0
2022-12-01T07:31:21.769Z,0.24
2022-12-01T07:32:21.901Z,0
2022-12-01T07:33:22.047Z,0.08
2022-12-01T07:34:22.197Z,0
2022-12-01T07:35:22.353Z,0.08
2022-12-01T07:36:22.498Z,0
2022-12-01T07:37:22.657Z,-0.08
2022-12-01T07:38:22.809Z,0.32
2022-12-01T07:39:22.948Z,0.24
2022-12-01T07:40:23.103Z,0.32
2022-12-01T07:41:23.239Z,0.4
2022-12-01T07:42:23.344Z,0.24
2022-12-01T07:43:23.457Z,0.32
2022-12-01T07:44:23.612Z,0.32
2022-12-01T07:45:23.762Z,0.4
2022-12-01T07:46:24.404Z,0.32
2022-12-01T07:47:24.012Z,0.24
2022-12-01T07:48:24.173Z,0.24
2022-12-01T07:49:24.320Z,0.08
2022-12-01T07:50:24.425Z,0.24
2022-12-01T07:51:24.570Z,0
2022-12-01T07:52:24.736Z,0
2022-12-01T07:53:24.870Z,0
2022-12-01T07:54:25.021Z,0.24
2022-12-01T07:55:25.175Z,0.24
2022-12-01T07:56:25.327Z,0.24
2022-12-01T07:57:25.474Z,0.08
2022-12-01T07:58:25.651Z,0.24
2022-12-01T07:59:25.793Z,0.32
2022-12-01T08:00:25.920Z,0.08
2022-12-01T08:01:26.079Z,0
2022-12-01T08:02:26.188Z,0.24
2022-12-01T08:03:26.272Z,0
2022-12-01T08:04:26.422Z,0.24
2022-12-01T08:05:26.520Z,0.24
2022-12-01T08:06:26.697Z,0.08
2022-12-01T08:07:29.789Z,0.24
2022-12-01T08:08:27.005Z,0.24
2022-12-01T08:09:27.150Z,0.4
2022-12-01T08:10:27.306Z,0.24
2022-12-01T08:11:27.455Z,0.32
2022-12-01T08:12:27.607Z,0.32
2022-12-01T08:13:27.710Z,0.32
2022-12-01T08:14:27.858Z,0.24
2022-12-01T08:15:28.069Z,0.08
2022-12-01T08:16:28.165Z,0.24
2022-12-01T08:17:28.244Z,0.24
2022-12-01T08:18:28.362Z,0.08
2022-12-01T08:19:28.514Z,0.32
2022-12-01T08:20:28.667Z,0.32
2022-12-01T08:21:28.716Z,0.24
2022-12-01T08:22:28.856Z,0.24
2022-12-01T08:23:29.017Z,0.4
2022-12-01T08:24:29.174Z,0.48
2022-12-01T08:25:29.319Z,0.48
2022-12-01T08:26:29.474Z,0.64
2022-12-01T08:27:29.614Z,0.72
2022-12-01T08:28:29.769Z,0.4
2022-12-01T08:29:29.924Z,0.4
2022-12-01T08:30:30.118Z,0.48
2022-12-01T08:31:30.258Z,0.64
2022-12-01T08:32:30.313Z,0.88
2022-12-01T08:33:30.479Z,1.04
2022-12-01T08:34:30.615Z,1.12
2022-12-01T08:35:30.788Z,1.04
2022-12-01T08:36:30.942Z,0.8
2022-12-01T08:37:31.043Z,0.8
2022-12-01T08:38:31.184Z,1.12
2022-12-01T08:39:31.339Z,1.28
2022-12-01T08:40:31.494Z,1.44
2022-12-01T08:41:31.645Z,1.12
2022-12-01T08:42:31.804Z,1.2
2022-12-01T08:43:56.379Z,1.12
2022-12-01T08:44:32.127Z,1.12
2022-12-01T08:45:32.246Z,1.12
2022-12-01T08:46:32.412Z,1.2
2022-12-01T08:47:32.461Z,1.28
2022-12-01T08:48:32.607Z,1.52
2022-12-01T08:49:32.765Z,1.28
2022-12-01T08:50:32.913Z,1.44
2022-12-01T08:51:33.060Z,0.8
2022-12-01T08:52:33.163Z,0.88
2022-12-01T08:53:33.312Z,1.04
2022-12-01T08:54:33.412Z,1.2
2022-12-01T08:55:33.558Z,1.28
2022-12-01T08:56:33.711Z,1.44
2022-12-01T08:57:33.885Z,1.6
2022-12-01T08:58:34.040Z,1.28
2022-12-01T08:59:34.170Z,1.28
2022-12-01T09:00:34.303Z,1.2
2022-12-01T09:01:34.496Z,1.2
2022-12-01T09:02:34.729Z,1.44
2022-12-01T09:03:34.723Z,1.2
2022-12-01T09:04:34.872Z,1.52
2022-12-01T09:05:34.983Z,1.52
2022-12-01T09:06:35.134Z,1.44
2022-12-01T09:07:35.307Z,1.2
2022-12-01T09:08:35.438Z,1.2
2022-12-01T09:09:35.581Z,1.28
2022-12-01T09:10:35.737Z,1.12
2022-12-01T09:11:35.885Z,1.44
2022-12-01T09:12:36.243Z,1.12
2022-12-01T09:13:36.386Z,1.52
2022-12-01T09:14:36.557Z,1.52
2022-12-01T09:15:36.682Z,1.44
2022-12-01T09:16:36.820Z,1.28
2022-12-01T09:17:36.955Z,1.44
2022-12-01T09:18:37.119Z,1.52
2022-12-01T09:19:37.259Z,1.52
2022-12-01T09:20:37.397Z,1.44
2022-12-01T09:21:37.563Z,1.44
2022-12-01T09:22:37.694Z,1.52
2022-12-01T09:23:37.838Z,1.52
2022-12-01T09:24:37.987Z,1.44
2022-12-01T09:25:38.153Z,1.52
2022-12-01T09:26:38.280Z,1.68
2022-12-01T09:27:38.405Z,1.68
2022-12-01T09:28:38.555Z,1.6
2022-12-01T09:29:38.702Z,1.68
2022-12-01T09:30:38.849Z,1.92
2022-12-01T09:31:38.980Z,2
2022-12-01T09:32:39.109Z,1.84
2022-12-01T09:33:39.216Z,1.84
2022-12-01T09:34:39.356Z,1.68
2022-12-01T09:35:39.686Z,1.92
2022-12-01T09:36:39.826Z,2
2022-12-01T09:37:39.972Z,2.32
2022-12-01T09:38:40.121Z,2.08
2022-12-01T09:39:40.223Z,1.84
2022-12-01T09:40:40.323Z,2
2022-12-01T09:41:40.477Z,2.08
2022-12-01T09:42:40.579Z,1.68
2022-12-01T09:43:40.725Z,1.92
2022-12-01T09:44:40.885Z,1.84
2022-12-01T09:45:41.019Z,1.52
2022-12-01T09:46:41.266Z,1.52
2022-12-01T09:47:41.325Z,1.52
2022-12-01T09:48:41.439Z,1.68
2022-12-01T09:49:41.527Z,1.92
2022-12-01T09:50:41.686Z,1.68
2022-12-01T09:51:41.796Z,1.44
2022-12-01T09:52:41.932Z,1.6
2022-12-01T09:53:42.105Z,1.68
2022-12-01T09:54:42.243Z,1.6
2022-12-01T09:55:42.396Z,1.6
2022-12-01T09:56:42.545Z,1.84
2022-12-01T09:57:42.702Z,1.92
2022-12-01T09:58:42.855Z,1.84
2022-12-01T09:59:42.957Z,1.84
2022-12-01T10:00:43.127Z,1.92
2022-12-01T10:01:43.251Z,1.68
2022-12-01T10:02:43.353Z,1.52
2022-12-01T10:03:43.510Z,1.28
2022-12-01T10:04:43.659Z,1.2
2022-12-01T10:06:03.261Z,1.28
2022-12-01T10:06:43.987Z,1.44
2022-12-01T10:07:44.173Z,1.52
2022-12-01T10:08:44.271Z,1.52
2022-12-01T10:09:44.373Z,1.6
2022-12-01T10:10:44.527Z,1.6
2022-12-01T10:11:44.731Z,1.6
2022-12-01T10:12:44.790Z,1.84
2022-12-01T10:13:44.863Z,1.6
2022-12-01T10:14:45.030Z,1.6
2022-12-01T10:15:45.160Z,1.6
2022-12-01T10:16:45.327Z,1.6
2022-12-01T10:17:45.486Z,1.6
2022-12-01T10:18:45.630Z,1.92
2022-12-01T10:19:45.778Z,1.6
2022-12-01T10:20:45.935Z,1.68
2022-12-01T10:21:46.038Z,1.84
2022-12-01T10:22:46.391Z,2
2022-12-01T10:23:46.548Z,2.24
2022-12-01T10:24:46.695Z,2.24
2022-12-01T10:25:46.848Z,2.24
2022-12-01T10:26:46.997Z,2.48
2022-12-01T10:27:47.158Z,2.48
2022-12-01T10:28:47.238Z,2.4
2022-12-01T10:29:47.838Z,2.32
2022-12-01T10:30:47.482Z,2.4
2022-12-01T10:31:47.688Z,2.48
2022-12-01T10:32:47.816Z,2.72
2022-12-01T10:33:47.959Z,2.8
2022-12-01T10:34:48.113Z,2.72
2022-12-01T10:35:48.259Z,2.24
2022-12-01T10:36:48.407Z,2.4
2022-12-01T10:37:48.658Z,2.4
2022-12-01T10:38:48.717Z,1.92
2022-12-01T10:39:49.245Z,2.32
2022-12-01T10:40:49.014Z,2.4
2022-12-01T10:41:49.174Z,2.4
2022-12-01T10:42:49.321Z,2.72
2022-12-01T10:43:49.455Z,2.4
2022-12-01T10:44:49.630Z,2.32
2022-12-01T10:45:49.809Z,2.4
2022-12-01T10:46:49.937Z,2.32
2022-12-01T10:47:51.794Z,2.64
2022-12-01T10:48:50.138Z,2.4
2022-12-01T10:49:50.511Z,2.64
2022-12-01T10:50:50.382Z,2.88
2022-12-01T10:51:50.547Z,2.72
2022-12-01T10:52:50.688Z,2.4
2022-12-01T10:53:50.805Z,2.4
2022-12-01T10:54:50.954Z,2.48
2022-12-01T10:55:51.086Z,2.4
2022-12-01T10:56:51.242Z,2.32
2022-12-01T10:57:51.393Z,2.4
2022-12-01T10:58:51.547Z,2.32
2022-12-01T10:59:51.913Z,2.4
2022-12-01T11:00:59.413Z,2.48
2022-12-01T11:01:52.045Z,2.32
2022-12-01T11:02:52.173Z,2.24
2022-12-01T11:03:52.281Z,2.32
2022-12-01T11:04:52.390Z,2.24
2022-12-01T11:05:52.566Z,2.4
2022-12-01T11:06:52.696Z,2.24
2022-12-01T11:07:52.889Z,2.24
2022-12-01T11:08:53.014Z,2.24
2022-12-01T11:09:53.163Z,2.24
2022-12-01T11:10:53.305Z,2.08
2022-12-01T11:11:53.415Z,2.24
2022-12-01T11:12:53.555Z,2.24
2022-12-01T11:13:53.708Z,2.4
2022-12-01T11:14:53.872Z,2.08
2022-12-01T11:15:54.007Z,2
2022-12-01T11:16:54.205Z,2.24
2022-12-01T11:17:54.307Z,2.24
2022-12-01T11:18:54.492Z,2.32
2022-12-01T11:19:54.681Z,2.4
2022-12-01T11:20:54.796Z,1.84
2022-12-01T11:21:54.982Z,2.24
2022-12-01T11:22:55.078Z,2.24
2022-12-01T11:23:55.170Z,2.32
2022-12-01T11:24:55.344Z,2.32
2022-12-01T11:25:55.480Z,2.4
2022-12-01T11:26:55.634Z,2.48
2022-12-01T11:27:55.780Z,2.48
2022-12-01T11:28:55.933Z,2.8
2022-12-01T11:29:56.092Z,2.64
2022-12-01T11:30:56.725Z,2.48
2022-12-01T11:31:56.366Z,2.64
2022-12-01T11:32:56.483Z,2.8
2022-12-01T11:33:57.022Z,2.72
2022-12-01T11:34:56.746Z,2.8
2022-12-01T11:35:56.890Z,2.88
2022-12-01T11:36:57.014Z,3.12
2022-12-01T11:38:13.577Z,2.8
2022-12-01T11:38:57.313Z,2.48
2022-12-01T11:39:57.449Z,2.4
2022-12-01T11:40:57.605Z,2.64
2022-12-01T11:41:57.752Z,2.4
2022-12-01T11:42:57.901Z,2.4
2022-12-01T11:44:01.691Z,2.4
2022-12-01T11:44:58.342Z,2.32
2022-12-01T11:45:58.532Z,2.32
2022-12-01T11:47:21.415Z,2.4
2022-12-01T11:51:59.880Z,2.4
2022-12-01T11:52:59.407Z,2.32
2022-12-01T11:53:59.581Z,2.4
2022-12-01T11:54:59.723Z,2.24
2022-12-01T11:55:59.876Z,2.4
2022-12-01T11:57:17.742Z,2.48
2022-12-01T11:58:00.109Z,2.4
2022-12-01T11:59:00.217Z,2.4
2022-12-01T12:00:00.328Z,2.48
2022-12-01T12:01:00.464Z,2.32
2022-12-01T12:02:00.685Z,2.32
2022-12-01T12:03:00.780Z,2.24
2022-12-01T12:04:00.924Z,2.32
2022-12-01T12:05:01.570Z,2.48
2022-12-01T12:06:18.116Z,2.64
2022-12-01T12:07:01.287Z,2.88
2022-12-01T12:08:01.472Z,2.72
2022-12-01T12:09:01.574Z,2.48
2022-12-01T12:10:01.689Z,2.48
2022-12-01T12:11:01.869Z,2.4
2022-12-01T12:12:01.997Z,2.72
2022-12-01T12:13:02.159Z,2.8
2022-12-01T12:14:02.266Z,2.64
2022-12-01T12:15:02.415Z,2.8
2022-12-01T12:16:02.544Z,2.64
2022-12-01T12:17:02.703Z,2.24
2022-12-01T12:18:02.891Z,1.92
2022-12-01T12:19:02.963Z,2.08
2022-12-01T12:20:07.492Z,2.08
2022-12-01T12:21:03.216Z,2.24
2022-12-01T12:22:03.360Z,2.32
2022-12-01T12:23:03.514Z,2.24
2022-12-01T12:24:03.673Z,2.24
2022-12-01T12:25:04.036Z,2
2022-12-01T12:26:03.967Z,2.08
2022-12-01T12:27:04.113Z,2
2022-12-01T12:28:04.287Z,2.24
2022-12-01T12:29:06.179Z,2.08
2022-12-01T12:30:04.588Z,2.08
2022-12-01T12:31:04.963Z,2.24
2022-12-01T12:32:04.882Z,2.32
2022-12-01T12:33:05.024Z,1.84
2022-12-01T12:34:05.127Z,2
2022-12-01T12:35:05.284Z,2.24
2022-12-01T12:36:05.436Z,2.24
2022-12-01T12:37:05.587Z,2.32
2022-12-01T12:38:05.751Z,2.32
2022-12-01T12:39:05.881Z,2.24
2022-12-01T12:40:06.031Z,2.4
2022-12-01T12:41:06.185Z,2.4
2022-12-01T12:42:06.342Z,2.32
2022-12-01T12:43:06.489Z,2.4
2022-12-01T12:44:06.638Z,2.24
2022-12-01T12:45:06.792Z,2.32
2022-12-01T12:46:06.979Z,2.08
2022-12-01T12:47:07.102Z,2.24
2022-12-01T12:48:07.256Z,2.08
2022-12-01T12:49:20.633Z,2.08
2022-12-01T12:50:07.533Z,2.32
2022-12-01T12:51:07.645Z,2.4
2022-12-01T12:52:08.830Z,2.4
2022-12-01T12:53:07.940Z,2.32
2022-12-01T12:54:08.553Z,2.24
2022-12-01T12:55:08.242Z,2.24
2022-12-01T12:56:08.349Z,2.24
2022-12-01T12:57:08.451Z,2.24
2022-12-01T12:58:11.210Z,2.24
2022-12-01T12:59:08.765Z,2.32
2022-12-01T13:00:08.871Z,2.32
2022-12-01T13:01:09.021Z,2.48
2022-12-01T13:02:09.156Z,2.4
2022-12-01T13:03:09.359Z,2.4
2022-12-01T13:04:09.421Z,2.32
2022-12-01T13:05:09.567Z,2.4
2022-12-01T13:06:09.686Z,2.24
2022-12-01T13:07:09.842Z,2.24
2022-12-01T13:08:09.975Z,2.08
2022-12-01T13:09:10.090Z,1.92
2022-12-01T13:10:10.182Z,1.92
2022-12-01T13:11:10.296Z,1.84
2022-12-01T13:12:10.444Z,1.92
2022-12-01T13:13:10.584Z,1.84
2022-12-01T13:14:10.695Z,1.6
2022-12-01T13:15:10.839Z,1.68
2022-12-01T13:16:11.005Z,1.6
2022-12-01T13:17:11.141Z,1.92
2022-12-01T13:18:11.290Z,1.68
2022-12-01T13:19:11.443Z,1.6
2022-12-01T13:20:11.594Z,1.6
2022-12-01T13:21:11.745Z,1.6
2022-12-01T13:22:11.910Z,1.52
2022-12-01T13:23:12.002Z,1.6
2022-12-01T13:24:12.164Z,1.6
2022-12-01T13:25:12.260Z,1.52
2022-12-01T13:26:12.413Z,1.52
2022-12-01T13:27:12.560Z,1.6
2022-12-01T13:28:12.656Z,1.84